Plymouth, Wisconsin
Current Conditions -  °F | °C
As of 2:53 PM on Friday 19 Dec 2014 (Local Time) from KSBM Reporting Station
Overcast Overcast  
Wind Chill: 30°   Ceiling: 2800
Heat Index: 30°   Visibility: 10mi
Dew Point: 21°   Wind: 3mph
Humidity: 69%   Direction: 280°W
Pressure: 30.26"   Gusts: NA
Location:  43.75°N, 87.98°W
Report Text: KSBM 192053Z AUTO 28003KT 10SM OVC028 M01/M06 A3026 RMK AO2 SLP259 T10111061 55005
Loading
Personal Weather Stations






























Interactive Weather Map New forecast layout! Learn more

10-Day Weather Forecast

Advertisements
Track Severe Weather on mobile